Note: Wind direction arrow are unfortunately not working and shows just north


Skjærhalden gjestehavn  Skjærhalden gjestehavn


Lynradar Scandinavia more information blitzortung!


Rain radar more information rain snow radar


Besøk Våre Andre vær websider:

Template documentation
and downloads

And another site



Ingen spesiell oppmerksomhet om været er påkrevd.    Det er ingen Vær-advarsler

Værrapport fra de nærmeste flyplassene

   
ENRY - Rygge
Oppdatert: Feb 21 2018 3:50 pm
Overskyet  
Overskyet  
   Vind: Øst 2.1 m/s
Vind: Øst 2.1 m/s
Temperatur: -2°C
Wind Chill: -5°C
Duggpunkt: -4°C
Luftfuktighet: 86%
Lufttrykk: 1026 hPa
Skyer: Overskyet
Sikt: More than 10 km
Detaljer skyer: Noen skyer 800 ft,
Overskyet 1100 ft
ENRY 211450Z 08004KT 030V100 9999 FEW008 OVC011 M02/M04 Q1026
ENTO - Sandefjord
Oppdatert: Feb 21 2018 3:50 pm
Overskyet  
Overskyet  
   Vind: Nord 2.6 m/s
Vind: Nord 2.6 m/s
Temperatur: -3°C
Wind Chill: -7°C
Duggpunkt: -3°C
Luftfuktighet: 100%
Lufttrykk: 1026 hPa
Skyer: Overskyet
Sikt: 4 km
Detaljer skyer: Overskyet 400 ft
ENTO 211450Z 01005KT 4000 OVC004 M03/M03 Q1026
ENSN - Skien
Oppdatert: Nov 9 2015 9:50 am
Oppdatert, se klokkeslett
Klart  
Klart  
   Vind: SSV 5.1 m/s<br />Gust to 5.1 m/s
Vind: SSV 5.1 m/s
Gust to 5.1 m/s
Temperatur: 7°C
Wind Chill: 4°C
Duggpunkt: 3°C
Luftfuktighet: 76%
Lufttrykk: 1000 hPa
Sikt: More than 10 km
Detaljer skyer: Klart
ENSN 090850Z 20010G22KT 150V240 CAVOK 07/03 Q1000
ENGM - Oslo
Oppdatert: Feb 21 2018 3:50 pm
For det meste Overskyet  
For det meste Overskyet  
   Vind: SSV 1.5 m/s
Vind: SSV 1.5 m/s
Temperatur: -4°C
Wind Chill: -7°C
Duggpunkt: -6°C
Luftfuktighet: 86%
Lufttrykk: 1025 hPa
Skyer: For det meste Overskyet
Sikt: More than 10 km
Detaljer skyer: For det meste Overskyet 1100 ft
ENGM 211450Z 20003KT 9999 BKN011 M04/M06 Q1025 NOSIG
ESOK - Karlstad
Oppdatert: Feb 21 2018 3:50 pm
Overskyet  
Overskyet  
   Vind: Øst 1.5 m/s
Vind: Øst 1.5 m/s
Temperatur: -5°C
Wind Chill: -8°C
Duggpunkt: -8°C
Luftfuktighet: 80%
Lufttrykk: 1027 hPa
Skyer: Overskyet
Sikt: More than 10 km
Detaljer skyer: Overskyet 1500 ft
ESOK 211450Z 08003KT 9999 OVC015 M05/M08 Q1027
ESST - Torsby
Oppdatert: Feb 21 2018 3:50 pm
Overskyet  
Overskyet  
   Vind: ØSØ 1.5 m/s
Vind: ØSØ 1.5 m/s
Temperatur: -4°C
Wind Chill: -7°C
Duggpunkt: -7°C
Luftfuktighet: 80%
Lufttrykk: 1026 hPa
Skyer: Overskyet
Sikt: More than 10 km
Detaljer skyer: Overskyet 1700 ft
ESST 211450Z AUTO 12003KT 9999 OVC017/// M04/M07 Q1026

Script utviklet av  Saratoga-weather.org Tilpasset for tamplaten av  Weerstation Leuven

Du finner stasjonens værinfo også på:

European Weather Network